sensor_id;sensor_type;location;lat;lon;timestamp;P1;durP1;ratioP1;P2;durP2;ratioP2
27666;SDS011;15074;50.940;5.282;2023-04-28T00:02:01;13.30;;;10.18;;
27666;SDS011;15074;50.940;5.282;2023-04-28T00:04:27;13.98;;;11.25;;
27666;SDS011;15074;50.940;5.282;2023-04-28T00:06:53;12.95;;;10.23;;
27666;SDS011;15074;50.940;5.282;2023-04-28T00:09:19;16.10;;;11.18;;
27666;SDS011;15074;50.940;5.282;2023-04-28T00:11:44;22.08;;;15.27;;
27666;SDS011;15074;50.940;5.282;2023-04-28T00:14:11;12.23;;;10.55;;
27666;SDS011;15074;50.940;5.282;2023-04-28T00:16:37;14.57;;;10.65;;
27666;SDS011;15074;50.940;5.282;2023-04-28T00:19:03;16.83;;;10.93;;
27666;SDS011;15074;50.940;5.282;2023-04-28T00:21:28;16.50;;;10.65;;
27666;SDS011;15074;50.940;5.282;2023-04-28T00:23:54;14.75;;;11.43;;
27666;SDS011;15074;50.940;5.282;2023-04-28T00:26:20;13.25;;;11.95;;
27666;SDS011;15074;50.940;5.282;2023-04-28T00:28:45;14.13;;;12.57;;
27666;SDS011;15074;50.940;5.282;2023-04-28T00:31:12;17.38;;;11.73;;
27666;SDS011;15074;50.940;5.282;2023-04-28T00:33:38;13.30;;;11.55;;
27666;SDS011;15074;50.940;5.282;2023-04-28T00:36:05;18.67;;;12.18;;
27666;SDS011;15074;50.940;5.282;2023-04-28T00:38:31;14.05;;;12.02;;
27666;SDS011;15074;50.940;5.282;2023-04-28T00:40:56;14.35;;;12.73;;
27666;SDS011;15074;50.940;5.282;2023-04-28T00:43:22;16.13;;;12.70;;
27666;SDS011;15074;50.940;5.282;2023-04-28T00:45:48;12.88;;;11.63;;
27666;SDS011;15074;50.940;5.282;2023-04-28T00:48:14;13.88;;;12.57;;
27666;SDS011;15074;50.940;5.282;2023-04-28T00:50:41;16.55;;;13.90;;
27666;SDS011;15074;50.940;5.282;2023-04-28T00:53:07;14.35;;;12.60;;
27666;SDS011;15074;50.940;5.282;2023-04-28T00:55:34;13.43;;;12.15;;
27666;SDS011;15074;50.940;5.282;2023-04-28T00:58:01;15.85;;;13.23;;
27666;SDS011;15074;50.940;5.282;2023-04-28T01:00:27;14.20;;;12.73;;
27666;SDS011;15074;50.940;5.282;2023-04-28T01:02:52;14.18;;;12.70;;
27666;SDS011;15074;50.940;5.282;2023-04-28T01:07:47;14.73;;;13.13;;
27666;SDS011;15074;50.940;5.282;2023-04-28T01:10:12;15.35;;;13.40;;
27666;SDS011;15074;50.940;5.282;2023-04-28T01:12:38;15.70;;;13.40;;
27666;SDS011;15074;50.940;5.282;2023-04-28T01:15:03;16.30;;;12.82;;
27666;SDS011;15074;50.940;5.282;2023-04-28T01:17:30;15.88;;;14.15;;
27666;SDS011;15074;50.940;5.282;2023-04-28T01:19:56;18.13;;;13.88;;
27666;SDS011;15074;50.940;5.282;2023-04-28T01:22:21;17.05;;;13.55;;
27666;SDS011;15074;50.940;5.282;2023-04-28T01:24:47;17.40;;;13.63;;
27666;SDS011;15074;50.940;5.282;2023-04-28T01:27:13;17.35;;;13.43;;
27666;SDS011;15074;50.940;5.282;2023-04-28T01:29:38;17.40;;;14.00;;
27666;SDS011;15074;50.940;5.282;2023-04-28T01:32:04;18.42;;;14.18;;
27666;SDS011;15074;50.940;5.282;2023-04-28T01:34:29;18.05;;;13.98;;
27666;SDS011;15074;50.940;5.282;2023-04-28T01:36:55;16.02;;;13.98;;
27666;SDS011;15074;50.940;5.282;2023-04-28T01:39:21;26.38;;;15.00;;
27666;SDS011;15074;50.940;5.282;2023-04-28T01:41:46;16.83;;;14.98;;
27666;SDS011;15074;50.940;5.282;2023-04-28T01:44:12;16.30;;;13.73;;
27666;SDS011;15074;50.940;5.282;2023-04-28T01:46:38;20.73;;;14.98;;
27666;SDS011;15074;50.940;5.282;2023-04-28T01:49:03;23.95;;;15.43;;
27666;SDS011;15074;50.940;5.282;2023-04-28T01:51:29;23.63;;;16.20;;
27666;SDS011;15074;50.940;5.282;2023-04-28T01:53:55;22.80;;;16.17;;
27666;SDS011;15074;50.940;5.282;2023-04-28T01:56:21;18.50;;;15.75;;
27666;SDS011;15074;50.940;5.282;2023-04-28T01:58:46;15.82;;;14.15;;
27666;SDS011;15074;50.940;5.282;2023-04-28T02:01:12;17.27;;;14.50;;
27666;SDS011;15074;50.940;5.282;2023-04-28T02:03:38;23.05;;;16.55;;
27666;SDS011;15074;50.940;5.282;2023-04-28T02:06:03;16.45;;;14.52;;
27666;SDS011;15074;50.940;5.282;2023-04-28T02:08:29;20.63;;;15.55;;
27666;SDS011;15074;50.940;5.282;2023-04-28T02:10:55;16.85;;;15.15;;
27666;SDS011;15074;50.940;5.282;2023-04-28T02:13:22;18.98;;;14.85;;
27666;SDS011;15074;50.940;5.282;2023-04-28T02:15:48;20.38;;;16.17;;
27666;SDS011;15074;50.940;5.282;2023-04-28T02:18:13;22.35;;;17.02;;
27666;SDS011;15074;50.940;5.282;2023-04-28T02:20:39;16.65;;;14.82;;
27666;SDS011;15074;50.940;5.282;2023-04-28T02:23:05;22.27;;;16.20;;
27666;SDS011;15074;50.940;5.282;2023-04-28T02:25:31;17.73;;;15.75;;
27666;SDS011;15074;50.940;5.282;2023-04-28T02:27:56;18.40;;;15.40;;
27666;SDS011;15074;50.940;5.282;2023-04-28T02:30:23;17.60;;;15.48;;
27666;SDS011;15074;50.940;5.282;2023-04-28T02:32:48;18.02;;;16.17;;
27666;SDS011;15074;50.940;5.282;2023-04-28T02:35:14;25.38;;;17.77;;
27666;SDS011;15074;50.940;5.282;2023-04-28T02:37:40;26.20;;;17.23;;
27666;SDS011;15074;50.940;5.282;2023-04-28T02:40:06;18.70;;;16.33;;
27666;SDS011;15074;50.940;5.282;2023-04-28T02:42:32;18.58;;;16.65;;
27666;SDS011;15074;50.940;5.282;2023-04-28T02:44:58;25.90;;;15.55;;
27666;SDS011;15074;50.940;5.282;2023-04-28T02:47:23;31.23;;;17.30;;
27666;SDS011;15074;50.940;5.282;2023-04-28T02:49:49;22.90;;;18.25;;
27666;SDS011;15074;50.940;5.282;2023-04-28T02:52:15;28.75;;;18.35;;
27666;SDS011;15074;50.940;5.282;2023-04-28T02:54:40;28.42;;;18.00;;
27666;SDS011;15074;50.940;5.282;2023-04-28T02:57:06;30.42;;;19.23;;
27666;SDS011;15074;50.940;5.282;2023-04-28T02:59:31;28.88;;;20.67;;
27666;SDS011;15074;50.940;5.282;2023-04-28T03:01:57;31.27;;;20.55;;
27666;SDS011;15074;50.940;5.282;2023-04-28T03:04:23;28.10;;;21.08;;
27666;SDS011;15074;50.940;5.282;2023-04-28T03:06:48;35.72;;;20.95;;
27666;SDS011;15074;50.940;5.282;2023-04-28T03:09:14;32.45;;;22.35;;
27666;SDS011;15074;50.940;5.282;2023-04-28T03:11:40;34.22;;;21.52;;
27666;SDS011;15074;50.940;5.282;2023-04-28T03:14:06;31.92;;;21.27;;
27666;SDS011;15074;50.940;5.282;2023-04-28T03:16:32;29.52;;;20.58;;
27666;SDS011;15074;50.940;5.282;2023-04-28T03:18:58;25.45;;;19.30;;
27666;SDS011;15074;50.940;5.282;2023-04-28T03:21:23;26.52;;;19.75;;
27666;SDS011;15074;50.940;5.282;2023-04-28T03:23:51;26.60;;;19.73;;
27666;SDS011;15074;50.940;5.282;2023-04-28T03:26:17;21.30;;;19.02;;
27666;SDS011;15074;50.940;5.282;2023-04-28T03:28:43;31.65;;;20.70;;
27666;SDS011;15074;50.940;5.282;2023-04-28T03:31:09;23.77;;;19.42;;
27666;SDS011;15074;50.940;5.282;2023-04-28T03:33:35;29.35;;;19.50;;
27666;SDS011;15074;50.940;5.282;2023-04-28T03:36:00;28.73;;;19.70;;
27666;SDS011;15074;50.940;5.282;2023-04-28T03:38:26;25.02;;;19.13;;
27666;SDS011;15074;50.940;5.282;2023-04-28T03:40:52;29.30;;;19.77;;
27666;SDS011;15074;50.940;5.282;2023-04-28T03:43:17;30.35;;;20.02;;
27666;SDS011;15074;50.940;5.282;2023-04-28T03:45:43;26.00;;;20.13;;
27666;SDS011;15074;50.940;5.282;2023-04-28T03:48:09;21.73;;;19.45;;
27666;SDS011;15074;50.940;5.282;2023-04-28T03:50:34;24.92;;;19.08;;
27666;SDS011;15074;50.940;5.282;2023-04-28T03:53:00;24.02;;;19.25;;
27666;SDS011;15074;50.940;5.282;2023-04-28T03:55:26;21.27;;;18.15;;
27666;SDS011;15074;50.940;5.282;2023-04-28T03:57:52;28.08;;;20.15;;
27666;SDS011;15074;50.940;5.282;2023-04-28T04:00:17;29.23;;;20.30;;
27666;SDS011;15074;50.940;5.282;2023-04-28T04:02:43;21.25;;;18.48;;
27666;SDS011;15074;50.940;5.282;2023-04-28T04:05:09;22.75;;;17.58;;
27666;SDS011;15074;50.940;5.282;2023-04-28T04:07:34;24.88;;;17.92;;
27666;SDS011;15074;50.940;5.282;2023-04-28T04:10:00;23.85;;;17.95;;
27666;SDS011;15074;50.940;5.282;2023-04-28T04:12:26;25.23;;;18.50;;
27666;SDS011;15074;50.940;5.282;2023-04-28T04:14:52;26.77;;;18.85;;
27666;SDS011;15074;50.940;5.282;2023-04-28T04:17:17;22.95;;;19.80;;
27666;SDS011;15074;50.940;5.282;2023-04-28T04:19:43;19.58;;;17.45;;
27666;SDS011;15074;50.940;5.282;2023-04-28T04:22:08;22.00;;;18.45;;
27666;SDS011;15074;50.940;5.282;2023-04-28T04:24:34;22.95;;;18.55;;
27666;SDS011;15074;50.940;5.282;2023-04-28T04:27:00;26.33;;;19.35;;
27666;SDS011;15074;50.940;5.282;2023-04-28T04:29:25;30.10;;;18.75;;
27666;SDS011;15074;50.940;5.282;2023-04-28T04:31:51;22.13;;;19.38;;
27666;SDS011;15074;50.940;5.282;2023-04-28T04:34:17;21.17;;;18.50;;
27666;SDS011;15074;50.940;5.282;2023-04-28T04:36:42;19.23;;;16.30;;
27666;SDS011;15074;50.940;5.282;2023-04-28T04:39:08;20.67;;;18.05;;
27666;SDS011;15074;50.940;5.282;2023-04-28T04:41:34;24.60;;;18.60;;
27666;SDS011;15074;50.940;5.282;2023-04-28T04:43:59;29.77;;;18.48;;
27666;SDS011;15074;50.940;5.282;2023-04-28T04:46:25;25.38;;;19.42;;
27666;SDS011;15074;50.940;5.282;2023-04-28T04:48:50;26.50;;;20.17;;
27666;SDS011;15074;50.940;5.282;2023-04-28T04:51:16;28.08;;;20.02;;
27666;SDS011;15074;50.940;5.282;2023-04-28T04:53:42;27.20;;;20.48;;
27666;SDS011;15074;50.940;5.282;2023-04-28T04:56:08;32.00;;;18.70;;
27666;SDS011;15074;50.940;5.282;2023-04-28T04:58:33;27.35;;;18.98;;
27666;SDS011;15074;50.940;5.282;2023-04-28T05:00:59;28.88;;;19.45;;
27666;SDS011;15074;50.940;5.282;2023-04-28T05:03:25;27.17;;;20.10;;
27666;SDS011;15074;50.940;5.282;2023-04-28T05:05:50;25.58;;;20.20;;
27666;SDS011;15074;50.940;5.282;2023-04-28T05:08:16;24.98;;;19.65;;
27666;SDS011;15074;50.940;5.282;2023-04-28T05:10:42;27.92;;;19.20;;
27666;SDS011;15074;50.940;5.282;2023-04-28T05:13:08;23.30;;;19.90;;
27666;SDS011;15074;50.940;5.282;2023-04-28T05:15:33;27.55;;;19.50;;
27666;SDS011;15074;50.940;5.282;2023-04-28T05:17:59;26.90;;;18.77;;
27666;SDS011;15074;50.940;5.282;2023-04-28T05:20:25;22.92;;;18.33;;
27666;SDS011;15074;50.940;5.282;2023-04-28T05:22:50;25.35;;;18.67;;
27666;SDS011;15074;50.940;5.282;2023-04-28T05:25:16;26.63;;;18.70;;
27666;SDS011;15074;50.940;5.282;2023-04-28T05:27:42;22.80;;;18.85;;
27666;SDS011;15074;50.940;5.282;2023-04-28T05:30:07;21.15;;;18.42;;
27666;SDS011;15074;50.940;5.282;2023-04-28T05:32:34;28.02;;;19.25;;
27666;SDS011;15074;50.940;5.282;2023-04-28T05:35:01;22.17;;;17.90;;
27666;SDS011;15074;50.940;5.282;2023-04-28T05:37:27;24.08;;;19.10;;
27666;SDS011;15074;50.940;5.282;2023-04-28T05:39:53;25.13;;;19.33;;
27666;SDS011;15074;50.940;5.282;2023-04-28T05:42:19;22.08;;;18.15;;
27666;SDS011;15074;50.940;5.282;2023-04-28T05:44:45;25.58;;;19.52;;
27666;SDS011;15074;50.940;5.282;2023-04-28T05:47:11;27.33;;;18.13;;
27666;SDS011;15074;50.940;5.282;2023-04-28T05:49:36;32.33;;;20.90;;
27666;SDS011;15074;50.940;5.282;2023-04-28T05:52:02;24.20;;;19.13;;
27666;SDS011;15074;50.940;5.282;2023-04-28T05:54:28;23.48;;;19.63;;
27666;SDS011;15074;50.940;5.282;2023-04-28T05:56:54;21.15;;;18.67;;
27666;SDS011;15074;50.940;5.282;2023-04-28T05:59:21;23.25;;;19.10;;
27666;SDS011;15074;50.940;5.282;2023-04-28T06:01:47;22.33;;;19.17;;
27666;SDS011;15074;50.940;5.282;2023-04-28T06:04:14;21.05;;;18.33;;
27666;SDS011;15074;50.940;5.282;2023-04-28T06:06:40;25.00;;;17.77;;
27666;SDS011;15074;50.940;5.282;2023-04-28T06:09:11;26.38;;;19.25;;
27666;SDS011;15074;50.940;5.282;2023-04-28T06:11:36;21.75;;;18.60;;
27666;SDS011;15074;50.940;5.282;2023-04-28T06:14:02;26.08;;;18.85;;
27666;SDS011;15074;50.940;5.282;2023-04-28T06:16:28;27.27;;;18.77;;
27666;SDS011;15074;50.940;5.282;2023-04-28T06:18:53;23.75;;;18.63;;
27666;SDS011;15074;50.940;5.282;2023-04-28T06:21:19;25.60;;;19.17;;
27666;SDS011;15074;50.940;5.282;2023-04-28T06:23:45;21.30;;;18.75;;
27666;SDS011;15074;50.940;5.282;2023-04-28T06:26:11;20.70;;;18.40;;
27666;SDS011;15074;50.940;5.282;2023-04-28T06:28:36;19.25;;;16.77;;
27666;SDS011;15074;50.940;5.282;2023-04-28T06:31:02;32.35;;;18.60;;
27666;SDS011;15074;50.940;5.282;2023-04-28T06:33:28;18.35;;;16.48;;
27666;SDS011;15074;50.940;5.282;2023-04-28T06:35:53;16.77;;;15.18;;
27666;SDS011;15074;50.940;5.282;2023-04-28T06:38:19;16.88;;;15.23;;
27666;SDS011;15074;50.940;5.282;2023-04-28T06:40:45;16.35;;;14.57;;
27666;SDS011;15074;50.940;5.282;2023-04-28T06:43:11;15.43;;;13.80;;
27666;SDS011;15074;50.940;5.282;2023-04-28T06:45:37;15.43;;;13.77;;
27666;SDS011;15074;50.940;5.282;2023-04-28T06:48:03;15.13;;;13.82;;
27666;SDS011;15074;50.940;5.282;2023-04-28T06:50:30;15.82;;;14.30;;
27666;SDS011;15074;50.940;5.282;2023-04-28T06:52:55;15.45;;;13.95;;
27666;SDS011;15074;50.940;5.282;2023-04-28T06:55:22;16.40;;;14.85;;
27666;SDS011;15074;50.940;5.282;2023-04-28T06:57:48;15.02;;;13.63;;
27666;SDS011;15074;50.940;5.282;2023-04-28T07:00:14;17.52;;;15.45;;
27666;SDS011;15074;50.940;5.282;2023-04-28T07:02:40;17.42;;;15.70;;
27666;SDS011;15074;50.940;5.282;2023-04-28T07:05:05;18.10;;;16.38;;
27666;SDS011;15074;50.940;5.282;2023-04-28T07:07:31;16.02;;;14.63;;
27666;SDS011;15074;50.940;5.282;2023-04-28T07:09:57;18.00;;;16.25;;
27666;SDS011;15074;50.940;5.282;2023-04-28T07:12:24;18.88;;;16.98;;
27666;SDS011;15074;50.940;5.282;2023-04-28T07:14:50;20.25;;;16.50;;
27666;SDS011;15074;50.940;5.282;2023-04-28T07:17:15;20.65;;;17.80;;
27666;SDS011;15074;50.940;5.282;2023-04-28T07:19:41;21.75;;;18.75;;
27666;SDS011;15074;50.940;5.282;2023-04-28T07:22:07;19.65;;;17.48;;
27666;SDS011;15074;50.940;5.282;2023-04-28T07:24:32;20.50;;;18.25;;
27666;SDS011;15074;50.940;5.282;2023-04-28T07:26:58;19.80;;;17.80;;
27666;SDS011;15074;50.940;5.282;2023-04-28T07:29:25;19.35;;;17.55;;
27666;SDS011;15074;50.940;5.282;2023-04-28T07:31:53;23.58;;;20.05;;
27666;SDS011;15074;50.940;5.282;2023-04-28T07:34:18;22.05;;;19.95;;
27666;SDS011;15074;50.940;5.282;2023-04-28T07:36:44;24.27;;;19.40;;
27666;SDS011;15074;50.940;5.282;2023-04-28T07:39:11;20.13;;;18.15;;
27666;SDS011;15074;50.940;5.282;2023-04-28T07:41:36;18.60;;;16.95;;
27666;SDS011;15074;50.940;5.282;2023-04-28T07:44:03;18.98;;;16.92;;
27666;SDS011;15074;50.940;5.282;2023-04-28T07:46:30;16.63;;;15.20;;
27666;SDS011;15074;50.940;5.282;2023-04-28T07:48:56;17.95;;;15.95;;
27666;SDS011;15074;50.940;5.282;2023-04-28T07:51:22;15.68;;;14.43;;
27666;SDS011;15074;50.940;5.282;2023-04-28T07:53:48;16.40;;;14.80;;
27666;SDS011;15074;50.940;5.282;2023-04-28T07:56:14;16.02;;;14.52;;
27666;SDS011;15074;50.940;5.282;2023-04-28T07:58:40;15.75;;;14.35;;
27666;SDS011;15074;50.940;5.282;2023-04-28T08:01:05;15.25;;;13.95;;
27666;SDS011;15074;50.940;5.282;2023-04-28T08:03:31;13.52;;;12.32;;
27666;SDS011;15074;50.940;5.282;2023-04-28T08:05:57;13.60;;;12.40;;
27666;SDS011;15074;50.940;5.282;2023-04-28T08:08:23;13.15;;;12.05;;
27666;SDS011;15074;50.940;5.282;2023-04-28T08:10:48;14.55;;;13.15;;
27666;SDS011;15074;50.940;5.282;2023-04-28T08:13:14;14.40;;;13.20;;
27666;SDS011;15074;50.940;5.282;2023-04-28T08:15:40;16.05;;;13.85;;
27666;SDS011;15074;50.940;5.282;2023-04-28T08:18:06;14.90;;;13.60;;
27666;SDS011;15074;50.940;5.282;2023-04-28T08:20:32;15.30;;;14.02;;
27666;SDS011;15074;50.940;5.282;2023-04-28T08:22:58;15.73;;;14.43;;
27666;SDS011;15074;50.940;5.282;2023-04-28T08:25:24;15.57;;;14.27;;
27666;SDS011;15074;50.940;5.282;2023-04-28T08:27:50;16.95;;;15.45;;
27666;SDS011;15074;50.940;5.282;2023-04-28T08:30:16;15.93;;;14.63;;
27666;SDS011;15074;50.940;5.282;2023-04-28T08:32:42;16.38;;;15.07;;
27666;SDS011;15074;50.940;5.282;2023-04-28T08:35:08;17.27;;;15.68;;
27666;SDS011;15074;50.940;5.282;2023-04-28T08:37:33;15.38;;;14.15;;
27666;SDS011;15074;50.940;5.282;2023-04-28T08:39:59;15.80;;;14.50;;
27666;SDS011;15074;50.940;5.282;2023-04-28T08:42:29;15.35;;;13.75;;
27666;SDS011;15074;50.940;5.282;2023-04-28T08:44:56;17.65;;;16.10;;
27666;SDS011;15074;50.940;5.282;2023-04-28T08:47:35;16.83;;;15.45;;
27666;SDS011;15074;50.940;5.282;2023-04-28T08:50:05;17.25;;;15.65;;
27666;SDS011;15074;50.940;5.282;2023-04-28T08:52:32;13.13;;;11.90;;
27666;SDS011;15074;50.940;5.282;2023-04-28T08:54:59;10.50;;;9.70;;
27666;SDS011;15074;50.940;5.282;2023-04-28T08:57:32;9.15;;;8.45;;
27666;SDS011;15074;50.940;5.282;2023-04-28T09:00:10;7.32;;;6.72;;
27666;SDS011;15074;50.940;5.282;2023-04-28T09:02:36;6.75;;;6.25;;
27666;SDS011;15074;50.940;5.282;2023-04-28T09:05:06;6.88;;;6.35;;
27666;SDS011;15074;50.940;5.282;2023-04-28T09:07:32;6.72;;;6.18;;
27666;SDS011;15074;50.940;5.282;2023-04-28T09:10:17;7.00;;;6.30;;
27666;SDS011;15074;50.940;5.282;2023-04-28T09:12:50;5.95;;;5.55;;
27666;SDS011;15074;50.940;5.282;2023-04-28T09:15:27;3.90;;;3.60;;
27666;SDS011;15074;50.940;5.282;2023-04-28T09:17:58;3.25;;;2.95;;
27666;SDS011;15074;50.940;5.282;2023-04-28T09:20:27;2.45;;;2.25;;
27666;SDS011;15074;50.940;5.282;2023-04-28T09:22:56;4.10;;;3.70;;
27666;SDS011;15074;50.940;5.282;2023-04-28T09:25:39;3.08;;;2.20;;
27666;SDS011;15074;50.940;5.282;2023-04-28T09:28:18;2.58;;;2.20;;
27666;SDS011;15074;50.940;5.282;2023-04-28T09:30:46;2.30;;;2.10;;
27666;SDS011;15074;50.940;5.282;2023-04-28T09:33:12;2.38;;;1.70;;
27666;SDS011;15074;50.940;5.282;2023-04-28T09:35:41;2.40;;;1.90;;
27666;SDS011;15074;50.940;5.282;2023-04-28T09:38:09;1.95;;;1.75;;
27666;SDS011;15074;50.940;5.282;2023-04-28T09:40:54;2.47;;;2.28;;
27666;SDS011;15074;50.940;5.282;2023-04-28T09:43:31;2.85;;;1.70;;
27666;SDS011;15074;50.940;5.282;2023-04-28T09:46:02;1.92;;;1.30;;
27666;SDS011;15074;50.940;5.282;2023-04-28T09:48:33;1.80;;;1.50;;
27666;SDS011;15074;50.940;5.282;2023-04-28T09:51:01;3.35;;;1.90;;
27666;SDS011;15074;50.940;5.282;2023-04-28T09:55:55;1.30;;;1.20;;
27666;SDS011;15074;50.940;5.282;2023-04-28T09:58:24;1.50;;;1.40;;
27666;SDS011;15074;50.940;5.282;2023-04-28T10:00:52;1.35;;;1.25;;
27666;SDS011;15074;50.940;5.282;2023-04-28T10:03:26;1.63;;;1.50;;
27666;SDS011;15074;50.940;5.282;2023-04-28T10:05:53;1.85;;;1.63;;
27666;SDS011;15074;50.940;5.282;2023-04-28T10:08:21;1.52;;;1.42;;
27666;SDS011;15074;50.940;5.282;2023-04-28T10:10:50;1.77;;;1.67;;
27666;SDS011;15074;50.940;5.282;2023-04-28T10:13:19;1.92;;;1.60;;
27666;SDS011;15074;50.940;5.282;2023-04-28T10:15:46;1.85;;;1.75;;
27666;SDS011;15074;50.940;5.282;2023-04-28T10:18:12;1.92;;;1.80;;
27666;SDS011;15074;50.940;5.282;2023-04-28T10:20:40;1.85;;;1.70;;
27666;SDS011;15074;50.940;5.282;2023-04-28T10:25:59;2.67;;;2.25;;
27666;SDS011;15074;50.940;5.282;2023-04-28T10:28:25;1.90;;;1.80;;
27666;SDS011;15074;50.940;5.282;2023-04-28T10:31:10;1.80;;;1.70;;
27666;SDS011;15074;50.940;5.282;2023-04-28T10:33:37;2.25;;;1.90;;
27666;SDS011;15074;50.940;5.282;2023-04-28T10:36:04;1.90;;;1.70;;
27666;SDS011;15074;50.940;5.282;2023-04-28T10:38:31;1.98;;;1.77;;
27666;SDS011;15074;50.940;5.282;2023-04-28T10:41:30;2.00;;;1.80;;
27666;SDS011;15074;50.940;5.282;2023-04-28T10:43:56;2.70;;;1.70;;
27666;SDS011;15074;50.940;5.282;2023-04-28T10:46:21;4.05;;;1.90;;
27666;SDS011;15074;50.940;5.282;2023-04-28T11:03:50;2.85;;;1.70;;
27666;SDS011;15074;50.940;5.282;2023-04-28T11:06:35;1.48;;;1.38;;
27666;SDS011;15074;50.940;5.282;2023-04-28T11:16:54;1.10;;;0.75;;
27666;SDS011;15074;50.940;5.282;2023-04-28T11:19:24;0.80;;;0.80;;
27666;SDS011;15074;50.940;5.282;2023-04-28T11:21:51;0.93;;;0.70;;
27666;SDS011;15074;50.940;5.282;2023-04-28T11:24:19;0.55;;;0.55;;
27666;SDS011;15074;50.940;5.282;2023-04-28T11:26:44;0.77;;;0.50;;
27666;SDS011;15074;50.940;5.282;2023-04-28T11:29:11;1.20;;;0.40;;
27666;SDS011;15074;50.940;5.282;2023-04-28T11:31:38;1.80;;;0.50;;
27666;SDS011;15074;50.940;5.282;2023-04-28T11:34:09;0.45;;;0.35;;
27666;SDS011;15074;50.940;5.282;2023-04-28T11:36:41;1.45;;;0.30;;
27666;SDS011;15074;50.940;5.282;2023-04-28T11:39:07;0.32;;;0.32;;
27666;SDS011;15074;50.940;5.282;2023-04-28T11:41:35;1.35;;;0.80;;
27666;SDS011;15074;50.940;5.282;2023-04-28T11:46:43;1.25;;;0.93;;
27666;SDS011;15074;50.940;5.282;2023-04-28T11:49:17;1.20;;;1.10;;
27666;SDS011;15074;50.940;5.282;2023-04-28T11:51:45;4.78;;;1.48;;
27666;SDS011;15074;50.940;5.282;2023-04-28T11:54:13;1.83;;;0.82;;
27666;SDS011;15074;50.940;5.282;2023-04-28T11:56:44;1.38;;;0.70;;
27666;SDS011;15074;50.940;5.282;2023-04-28T11:59:10;1.45;;;0.98;;
27666;SDS011;15074;50.940;5.282;2023-04-28T12:01:44;0.98;;;0.90;;
27666;SDS011;15074;50.940;5.282;2023-04-28T12:04:26;0.70;;;0.70;;
27666;SDS011;15074;50.940;5.282;2023-04-28T12:07:00;0.75;;;0.75;;
27666;SDS011;15074;50.940;5.282;2023-04-28T12:12:13;0.80;;;0.70;;
27666;SDS011;15074;50.940;5.282;2023-04-28T12:17:26;1.13;;;0.77;;
27666;SDS011;15074;50.940;5.282;2023-04-28T12:19:56;0.80;;;0.80;;
27666;SDS011;15074;50.940;5.282;2023-04-28T12:22:23;1.05;;;0.70;;
27666;SDS011;15074;50.940;5.282;2023-04-28T12:27:32;1.25;;;0.70;;
27666;SDS011;15074;50.940;5.282;2023-04-28T12:29:58;1.58;;;0.90;;
27666;SDS011;15074;50.940;5.282;2023-04-28T12:32:37;0.77;;;0.77;;
27666;SDS011;15074;50.940;5.282;2023-04-28T12:35:08;2.75;;;0.90;;
27666;SDS011;15074;50.940;5.282;2023-04-28T12:37:34;1.33;;;0.90;;
27666;SDS011;15074;50.940;5.282;2023-04-28T12:42:28;0.90;;;0.77;;
27666;SDS011;15074;50.940;5.282;2023-04-28T12:44:54;0.80;;;0.80;;
27666;SDS011;15074;50.940;5.282;2023-04-28T12:47:20;8.25;;;0.90;;
27666;SDS011;15074;50.940;5.282;2023-04-28T12:49:45;1.60;;;1.02;;
27666;SDS011;15074;50.940;5.282;2023-04-28T12:52:13;3.08;;;1.30;;
27666;SDS011;15074;50.940;5.282;2023-04-28T12:54:39;1.83;;;1.33;;
27666;SDS011;15074;50.940;5.282;2023-04-28T12:57:10;1.77;;;1.38;;
27666;SDS011;15074;50.940;5.282;2023-04-28T12:59:37;1.40;;;1.30;;
27666;SDS011;15074;50.940;5.282;2023-04-28T13:02:03;2.45;;;1.20;;
27666;SDS011;15074;50.940;5.282;2023-04-28T13:04:29;1.52;;;1.30;;
27666;SDS011;15074;50.940;5.282;2023-04-28T13:06:56;1.75;;;1.40;;
27666;SDS011;15074;50.940;5.282;2023-04-28T13:09:23;1.73;;;1.55;;
27666;SDS011;15074;50.940;5.282;2023-04-28T13:11:49;1.63;;;1.30;;
27666;SDS011;15074;50.940;5.282;2023-04-28T13:14:17;1.77;;;1.50;;
27666;SDS011;15074;50.940;5.282;2023-04-28T13:16:43;1.20;;;1.10;;
27666;SDS011;15074;50.940;5.282;2023-04-28T13:19:09;1.80;;;1.27;;
27666;SDS011;15074;50.940;5.282;2023-04-28T13:21:38;1.67;;;1.10;;
27666;SDS011;15074;50.940;5.282;2023-04-28T13:24:07;1.48;;;1.10;;
27666;SDS011;15074;50.940;5.282;2023-04-28T13:26:34;1.88;;;1.33;;
27666;SDS011;15074;50.940;5.282;2023-04-28T13:29:00;1.23;;;1.00;;
27666;SDS011;15074;50.940;5.282;2023-04-28T13:31:27;1.40;;;0.75;;
27666;SDS011;15074;50.940;5.282;2023-04-28T13:33:56;1.55;;;1.10;;
27666;SDS011;15074;50.940;5.282;2023-04-28T13:36:23;1.20;;;0.98;;
27666;SDS011;15074;50.940;5.282;2023-04-28T13:38:49;0.95;;;0.90;;
27666;SDS011;15074;50.940;5.282;2023-04-28T13:41:15;1.48;;;0.80;;
27666;SDS011;15074;50.940;5.282;2023-04-28T13:43:42;1.83;;;0.70;;
27666;SDS011;15074;50.940;5.282;2023-04-28T13:46:07;1.10;;;0.90;;
27666;SDS011;15074;50.940;5.282;2023-04-28T13:48:34;1.77;;;1.05;;
27666;SDS011;15074;50.940;5.282;2023-04-28T13:51:01;0.70;;;0.70;;
27666;SDS011;15074;50.940;5.282;2023-04-28T13:53:28;2.35;;;0.85;;
27666;SDS011;15074;50.940;5.282;2023-04-28T13:55:54;2.63;;;0.93;;
27666;SDS011;15074;50.940;5.282;2023-04-28T13:58:24;1.13;;;0.90;;
27666;SDS011;15074;50.940;5.282;2023-04-28T14:00:51;1.25;;;0.82;;
27666;SDS011;15074;50.940;5.282;2023-04-28T14:03:20;1.85;;;0.80;;
27666;SDS011;15074;50.940;5.282;2023-04-28T14:05:47;1.95;;;1.35;;
27666;SDS011;15074;50.940;5.282;2023-04-28T14:08:14;0.98;;;0.90;;
27666;SDS011;15074;50.940;5.282;2023-04-28T14:10:40;1.58;;;0.90;;
27666;SDS011;15074;50.940;5.282;2023-04-28T14:13:06;0.98;;;0.85;;
27666;SDS011;15074;50.940;5.282;2023-04-28T14:15:32;4.45;;;0.85;;
27666;SDS011;15074;50.940;5.282;2023-04-28T14:17:57;0.80;;;0.80;;
27666;SDS011;15074;50.940;5.282;2023-04-28T14:20:23;1.27;;;0.90;;
27666;SDS011;15074;50.940;5.282;2023-04-28T14:22:49;1.33;;;0.90;;
27666;SDS011;15074;50.940;5.282;2023-04-28T14:25:15;1.33;;;0.90;;
27666;SDS011;15074;50.940;5.282;2023-04-28T14:27:42;1.35;;;1.02;;
27666;SDS011;15074;50.940;5.282;2023-04-28T14:30:07;1.40;;;0.80;;
27666;SDS011;15074;50.940;5.282;2023-04-28T14:32:34;0.80;;;0.75;;
27666;SDS011;15074;50.940;5.282;2023-04-28T14:35:02;0.63;;;0.63;;
27666;SDS011;15074;50.940;5.282;2023-04-28T14:37:30;0.80;;;0.80;;
27666;SDS011;15074;50.940;5.282;2023-04-28T14:39:56;1.33;;;0.98;;
27666;SDS011;15074;50.940;5.282;2023-04-28T14:42:26;0.85;;;0.85;;
27666;SDS011;15074;50.940;5.282;2023-04-28T14:44:57;1.17;;;0.98;;
27666;SDS011;15074;50.940;5.282;2023-04-28T14:47:23;1.00;;;0.90;;
27666;SDS011;15074;50.940;5.282;2023-04-28T14:49:51;1.83;;;0.90;;
27666;SDS011;15074;50.940;5.282;2023-04-28T14:52:20;1.27;;;0.85;;
27666;SDS011;15074;50.940;5.282;2023-04-28T14:54:49;2.10;;;0.90;;
27666;SDS011;15074;50.940;5.282;2023-04-28T14:57:16;1.38;;;0.90;;
27666;SDS011;15074;50.940;5.282;2023-04-28T14:59:42;0.85;;;0.85;;
27666;SDS011;15074;50.940;5.282;2023-04-28T15:02:08;1.08;;;1.00;;
27666;SDS011;15074;50.940;5.282;2023-04-28T15:04:34;1.10;;;1.00;;
27666;SDS011;15074;50.940;5.282;2023-04-28T15:07:00;1.35;;;0.98;;
27666;SDS011;15074;50.940;5.282;2023-04-28T15:09:25;1.55;;;1.10;;
27666;SDS011;15074;50.940;5.282;2023-04-28T15:11:52;1.95;;;1.30;;
27666;SDS011;15074;50.940;5.282;2023-04-28T15:14:18;1.10;;;1.00;;